Fern Glen, Pennsylvania
Current Conditions -  °F | °C
As of 5:35 PM on Wednesday 22 Oct 2014 (Local Time) from KHZL Reporting Station
Drizzle Drizzle  
Wind Chill: 43°   Ceiling: 900
Heat Index: 48°   Visibility: 4mi
Dew Point: 45°   Wind: 12mph
Humidity: 87%   Direction: 340°NNW
Pressure: 29.97"   Gusts: 28mph
Location:  40.9427°N, 76.1676°W
Report Text: KHZL 222135Z AUTO 34010G24KT 4SM DZ OVC009 09/07 A2997 RMK AO2 LTG DSNT SE
Loading
Personal Weather Stations






























Interactive Weather Map
Tropical Storm Tracking
New forecast layout! Learn more

10-Day Weather Forecast

Advertisements
Track Severe Weather on mobile